createdAt,value
2019-06-26T00:00:56.474Z,5.35
2019-06-26T00:03:57.839Z,4.40
2019-06-26T00:06:59.077Z,4.90
2019-06-26T00:10:00.383Z,4.83
2019-06-26T00:13:01.639Z,4.92
2019-06-26T00:16:03.018Z,5.20
2019-06-26T00:19:04.327Z,5.03
2019-06-26T00:22:05.688Z,5.03
2019-06-26T00:25:07.559Z,5.33
2019-06-26T00:28:08.899Z,5.10
2019-06-26T00:31:10.185Z,5.33
2019-06-26T00:34:11.524Z,5.55
2019-06-26T00:37:12.793Z,5.45
2019-06-26T00:40:14.054Z,5.87
2019-06-26T00:43:15.395Z,5.72
2019-06-26T00:46:16.897Z,6.08
2019-06-26T00:49:18.535Z,5.65
2019-06-26T00:52:19.804Z,5.62
2019-06-26T00:55:21.153Z,5.70
2019-06-26T00:58:22.434Z,6.00
2019-06-26T01:01:23.789Z,6.25
2019-06-26T01:04:27.102Z,5.83
2019-06-26T01:07:28.341Z,5.97
2019-06-26T01:10:29.734Z,5.80
2019-06-26T01:13:30.943Z,6.17
2019-06-26T01:16:32.283Z,5.60
2019-06-26T01:19:33.706Z,6.03
2019-06-26T01:22:34.994Z,6.12
2019-06-26T01:25:36.426Z,6.10
2019-06-26T01:28:38.085Z,6.40
2019-06-26T01:31:39.529Z,6.22
2019-06-26T01:34:40.766Z,6.60
2019-06-26T01:37:42.101Z,6.25
2019-06-26T01:40:43.427Z,6.25
2019-06-26T01:43:44.931Z,6.30
2019-06-26T01:46:46.245Z,6.22
2019-06-26T01:49:47.601Z,6.40
2019-06-26T01:52:48.905Z,6.37
2019-06-26T01:55:50.156Z,6.62
2019-06-26T01:58:51.561Z,6.47
2019-06-26T02:01:52.803Z,6.47
2019-06-26T02:04:54.066Z,6.25
2019-06-26T02:07:55.434Z,6.47
2019-06-26T02:10:56.701Z,6.37
2019-06-26T02:13:57.937Z,6.50
2019-06-26T02:16:59.293Z,6.87
2019-06-26T02:20:00.679Z,6.50
2019-06-26T02:23:02.064Z,6.97
2019-06-26T02:26:03.612Z,6.70
2019-06-26T02:29:05.117Z,7.30
2019-06-26T02:32:06.373Z,7.03
2019-06-26T02:35:10.399Z,6.40
2019-06-26T02:38:11.009Z,6.80
2019-06-26T02:41:12.632Z,7.15
2019-06-26T02:44:13.879Z,6.78
2019-06-26T02:47:20.026Z,6.47
2019-06-26T02:50:18.686Z,6.37
2019-06-26T02:53:20.078Z,6.15
2019-06-26T02:56:21.313Z,6.37
2019-06-26T02:59:22.787Z,6.50
2019-06-26T03:02:24.128Z,6.00
2019-06-26T03:05:25.378Z,6.35
2019-06-26T03:08:26.822Z,6.03
2019-06-26T03:11:28.153Z,6.17
2019-06-26T03:14:29.501Z,5.90
2019-06-26T03:17:30.785Z,6.08
2019-06-26T03:20:38.582Z,6.10
2019-06-26T03:23:40.033Z,5.80
2019-06-26T03:26:41.414Z,6.28
2019-06-26T03:29:42.757Z,6.28
2019-06-26T03:32:44.028Z,6.10
2019-06-26T03:35:45.409Z,6.58
2019-06-26T03:38:46.763Z,6.22
2019-06-26T03:41:48.150Z,5.92
2019-06-26T03:44:49.418Z,5.72
2019-06-26T03:47:50.809Z,6.10
2019-06-26T03:50:52.050Z,6.17
2019-06-26T03:53:53.324Z,5.97
2019-06-26T03:56:54.670Z,6.15
2019-06-26T03:59:55.953Z,6.08
2019-06-26T04:02:57.215Z,6.92
2019-06-26T04:05:58.620Z,6.60
2019-06-26T04:08:59.862Z,6.22
2019-06-26T04:12:01.229Z,6.50
2019-06-26T04:15:05.177Z,6.03
2019-06-26T04:18:06.538Z,6.37
2019-06-26T04:21:07.791Z,6.40
2019-06-26T04:24:09.176Z,6.10
2019-06-26T04:27:10.518Z,7.55
2019-06-26T04:30:12.244Z,6.80
2019-06-26T04:33:13.497Z,6.95
2019-06-26T04:36:14.757Z,6.80
2019-06-26T04:39:16.105Z,7.30
2019-06-26T04:42:17.951Z,7.90
2019-06-26T04:45:19.563Z,7.00
2019-06-26T04:48:20.863Z,7.05
2019-06-26T04:51:22.086Z,8.13
2019-06-26T04:54:23.453Z,8.13
2019-06-26T04:57:24.692Z,7.78
2019-06-26T05:00:26.006Z,8.15
2019-06-26T05:03:27.442Z,8.28
2019-06-26T05:06:28.722Z,8.30
2019-06-26T05:09:30.225Z,8.65
2019-06-26T05:12:31.504Z,8.35
2019-06-26T05:15:32.830Z,9.15
2019-06-26T05:18:34.130Z,8.50
2019-06-26T05:21:35.522Z,8.13
2019-06-26T05:24:36.769Z,9.10
2019-06-26T05:27:38.120Z,9.60
2019-06-26T05:30:39.718Z,8.83
2019-06-26T05:33:41.097Z,8.90
2019-06-26T05:36:42.409Z,8.90
2019-06-26T05:39:43.651Z,8.95
2019-06-26T05:42:44.922Z,9.45
2019-06-26T05:45:46.259Z,9.20
2019-06-26T05:48:47.632Z,9.20
2019-06-26T05:51:48.996Z,9.80
2019-06-26T05:54:50.758Z,9.53
2019-06-26T05:57:52.102Z,9.60
2019-06-26T06:00:53.397Z,10.05
2019-06-26T06:03:54.784Z,10.63
2019-06-26T06:06:56.162Z,10.08
2019-06-26T06:09:57.425Z,10.80
2019-06-26T06:12:58.706Z,11.35
2019-06-26T06:15:59.953Z,10.43
2019-06-26T06:19:01.219Z,10.58
2019-06-26T06:22:03.054Z,10.35
2019-06-26T06:25:05.079Z,10.45
2019-06-26T06:28:08.973Z,11.22
2019-06-26T06:31:10.113Z,11.48
2019-06-26T06:34:11.668Z,11.40
2019-06-26T06:37:13.228Z,11.05
2019-06-26T06:40:14.789Z,11.53
2019-06-26T06:43:16.142Z,11.88
2019-06-26T06:46:17.378Z,11.50
2019-06-26T06:49:18.870Z,12.43
2019-06-26T06:52:20.208Z,11.48
2019-06-26T06:55:21.811Z,11.65
2019-06-26T06:58:23.165Z,11.68
2019-06-26T07:01:25.525Z,11.85
2019-06-26T07:04:27.703Z,12.23
2019-06-26T07:07:28.980Z,12.43
2019-06-26T07:10:32.114Z,12.63
2019-06-26T07:13:33.942Z,12.80
2019-06-26T07:16:35.852Z,13.18
2019-06-26T07:19:37.228Z,12.65
2019-06-26T07:22:38.922Z,12.88
2019-06-26T07:25:40.245Z,13.58
2019-06-26T07:28:41.687Z,13.88
2019-06-26T07:31:43.014Z,14.07
2019-06-26T07:34:44.257Z,14.33
2019-06-26T07:37:45.511Z,14.87
2019-06-26T07:40:46.859Z,15.53
2019-06-26T07:43:48.631Z,15.08
2019-06-26T07:46:51.216Z,14.68
2019-06-26T07:49:52.525Z,15.18
2019-06-26T07:52:53.760Z,16.40
2019-06-26T07:55:56.632Z,15.45
2019-06-26T07:58:58.144Z,17.25
2019-06-26T08:02:00.218Z,16.55
2019-06-26T08:05:01.718Z,16.73
2019-06-26T08:08:03.568Z,16.48
2019-06-26T08:11:06.503Z,16.17
2019-06-26T08:14:08.011Z,16.73
2019-06-26T08:17:09.628Z,16.65
2019-06-26T08:20:11.881Z,16.77
2019-06-26T08:23:13.101Z,17.35
2019-06-26T08:26:14.478Z,18.17
2019-06-26T08:29:16.334Z,17.55
2019-06-26T08:32:18.371Z,16.75
2019-06-26T08:35:19.986Z,17.50
2019-06-26T08:38:21.361Z,17.00
2019-06-26T08:41:23.351Z,18.07
2019-06-26T08:44:24.883Z,17.05
2019-06-26T08:47:26.876Z,17.10
2019-06-26T08:50:28.817Z,17.35
2019-06-26T08:53:32.053Z,17.45
2019-06-26T08:56:34.848Z,17.30
2019-06-26T08:59:36.155Z,16.48
2019-06-26T09:02:37.514Z,16.67
2019-06-26T09:05:47.929Z,16.70
2019-06-26T09:08:41.767Z,16.35
2019-06-26T09:11:43.227Z,15.75
2019-06-26T09:14:44.707Z,14.83
2019-06-26T09:17:46.116Z,15.88
2019-06-26T09:20:47.475Z,15.13
2019-06-26T09:23:48.723Z,15.68
2019-06-26T09:26:49.982Z,15.38
2019-06-26T09:29:51.434Z,15.50
2019-06-26T09:32:52.802Z,15.35
2019-06-26T09:35:54.247Z,15.05
2019-06-26T09:38:57.831Z,14.55
2019-06-26T09:41:58.821Z,14.55
2019-06-26T09:45:00.702Z,15.20
2019-06-26T09:48:02.516Z,14.63
2019-06-26T09:51:04.015Z,14.95
2019-06-26T09:54:05.344Z,14.75
2019-06-26T09:57:06.959Z,14.90
2019-06-26T10:00:11.067Z,14.50
2019-06-26T10:03:12.608Z,15.43
2019-06-26T10:06:13.926Z,14.93
2019-06-26T10:09:15.702Z,15.63
2019-06-26T10:12:17.822Z,15.38
2019-06-26T10:15:19.325Z,14.87
2019-06-26T10:18:20.671Z,15.23
2019-06-26T10:21:23.718Z,15.08
2019-06-26T10:24:25.219Z,15.03
2019-06-26T10:27:26.613Z,16.20
2019-06-26T10:30:28.039Z,15.15
2019-06-26T10:33:29.421Z,13.68
2019-06-26T10:36:30.907Z,13.50
2019-06-26T10:39:32.253Z,13.95
2019-06-26T10:42:33.859Z,14.05
2019-06-26T10:45:36.348Z,14.10
2019-06-26T10:48:37.771Z,14.43
2019-06-26T10:51:39.775Z,13.72
2019-06-26T10:54:44.318Z,12.95
2019-06-26T10:57:44.374Z,13.00
2019-06-26T11:00:45.832Z,13.13
2019-06-26T11:03:47.142Z,12.53
2019-06-26T11:06:48.542Z,12.65
2019-06-26T11:09:49.810Z,12.65
2019-06-26T11:12:51.065Z,12.82
2019-06-26T11:15:52.707Z,12.65
2019-06-26T11:18:54.306Z,12.33
2019-06-26T11:21:55.813Z,12.93
2019-06-26T11:24:58.299Z,12.43
2019-06-26T11:27:59.918Z,11.97
2019-06-26T11:31:01.218Z,11.97
2019-06-26T11:34:02.743Z,11.65
2019-06-26T11:37:04.808Z,11.25
2019-06-26T11:40:07.860Z,10.60
2019-06-26T11:43:09.068Z,10.65
2019-06-26T11:46:11.624Z,10.30
2019-06-26T11:49:13.083Z,10.40
2019-06-26T11:52:14.446Z,10.53
2019-06-26T11:55:16.090Z,10.53
2019-06-26T11:58:17.541Z,10.05
2019-06-26T12:01:18.785Z,10.65
2019-06-26T12:04:20.074Z,9.88
2019-06-26T12:07:21.327Z,10.53
2019-06-26T12:10:22.896Z,10.03
2019-06-26T12:13:24.371Z,10.08
2019-06-26T12:16:25.752Z,10.05
2019-06-26T12:19:26.966Z,10.15
2019-06-26T12:22:28.339Z,10.70
2019-06-26T12:25:29.587Z,10.82
2019-06-26T12:28:33.039Z,10.95
2019-06-26T12:31:34.751Z,11.08
2019-06-26T12:34:36.525Z,11.08
2019-06-26T12:37:38.402Z,10.05
2019-06-26T12:40:39.749Z,10.65
2019-06-26T12:43:41.181Z,10.72
2019-06-26T12:46:42.997Z,10.75
2019-06-26T12:49:44.234Z,10.58
2019-06-26T12:52:45.801Z,9.80
2019-06-26T12:55:47.206Z,9.28
2019-06-26T12:58:48.705Z,10.48
2019-06-26T13:01:50.168Z,9.48
2019-06-26T13:04:51.420Z,10.05
2019-06-26T13:07:52.672Z,9.15
2019-06-26T13:10:54.107Z,9.15
2019-06-26T13:14:02.729Z,9.35
2019-06-26T13:16:59.636Z,9.10
2019-06-26T13:20:04.901Z,8.43
2019-06-26T13:23:07.129Z,8.78
2019-06-26T13:26:09.674Z,8.98
2019-06-26T13:29:12.080Z,9.00
2019-06-26T13:32:16.705Z,8.80
2019-06-26T13:35:19.345Z,9.00
2019-06-26T13:38:22.616Z,8.88
2019-06-26T13:41:26.209Z,9.40
2019-06-26T13:44:28.872Z,8.28
2019-06-26T13:47:31.675Z,7.55
2019-06-26T13:50:33.167Z,7.62
2019-06-26T13:53:34.686Z,8.20
2019-06-26T13:56:36.240Z,8.53
2019-06-26T13:59:39.200Z,7.62
2019-06-26T14:02:40.703Z,7.83
2019-06-26T14:05:42.123Z,8.43
2019-06-26T14:08:43.545Z,8.25
2019-06-26T14:11:44.870Z,8.38
2019-06-26T14:14:56.926Z,8.05
2019-06-26T14:17:49.341Z,8.45
2019-06-26T14:20:51.943Z,8.18
2019-06-26T14:23:54.738Z,8.73
2019-06-26T14:26:56.386Z,8.50
2019-06-26T14:29:57.641Z,9.18
2019-06-26T14:32:59.248Z,8.83
2019-06-26T14:36:01.210Z,9.20
2019-06-26T14:39:05.151Z,9.05
2019-06-26T14:42:06.675Z,9.48
2019-06-26T14:45:08.429Z,9.90
2019-06-26T14:48:09.813Z,9.15
2019-06-26T14:51:11.293Z,9.10
2019-06-26T14:54:15.156Z,8.93
2019-06-26T14:57:16.482Z,9.05
2019-06-26T15:00:18.355Z,9.33
2019-06-26T15:03:20.142Z,9.40
2019-06-26T15:06:22.666Z,9.55
2019-06-26T15:09:24.718Z,9.35
2019-06-26T15:12:26.653Z,10.10
2019-06-26T15:15:29.223Z,9.80
2019-06-26T15:18:51.322Z,9.88
2019-06-26T15:21:58.228Z,9.30
2019-06-26T15:24:56.416Z,9.50
2019-06-26T15:27:57.925Z,10.05
2019-06-26T15:30:59.428Z,10.20
2019-06-26T15:34:00.885Z,10.70
2019-06-26T15:37:03.097Z,10.65
2019-06-26T15:40:05.298Z,10.88
2019-06-26T15:43:07.083Z,10.85
2019-06-26T15:46:09.809Z,10.70
2019-06-26T15:49:11.107Z,10.95
2019-06-26T15:52:15.458Z,11.18
2019-06-26T15:55:15.872Z,10.25
2019-06-26T15:58:17.129Z,10.35
2019-06-26T16:01:19.324Z,9.98
2019-06-26T16:04:20.515Z,9.88
2019-06-26T16:07:21.781Z,9.90
2019-06-26T16:10:23.037Z,10.20
2019-06-26T16:13:24.857Z,9.58
2019-06-26T16:16:26.094Z,9.90
2019-06-26T16:19:27.383Z,9.30
2019-06-26T16:22:32.648Z,9.80
2019-06-26T16:25:31.927Z,9.53
2019-06-26T16:28:33.331Z,9.80
2019-06-26T16:31:35.424Z,10.00
2019-06-26T16:34:36.972Z,9.50
2019-06-26T16:37:38.756Z,9.10
2019-06-26T16:40:40.075Z,9.28
2019-06-26T16:43:41.475Z,9.13
2019-06-26T16:46:42.745Z,9.35
2019-06-26T16:49:44.377Z,8.83
2019-06-26T16:52:49.539Z,9.15
2019-06-26T16:55:48.806Z,9.83
2019-06-26T16:58:50.318Z,9.18
2019-06-26T17:01:51.846Z,8.90
2019-06-26T17:04:53.166Z,9.18
2019-06-26T17:07:54.637Z,9.48
2019-06-26T17:10:55.880Z,9.70
2019-06-26T17:13:57.757Z,9.25
2019-06-26T17:16:59.447Z,9.80
2019-06-26T17:20:01.103Z,9.93
2019-06-26T17:23:06.076Z,10.25
2019-06-26T17:26:05.927Z,10.40
2019-06-26T17:29:07.994Z,10.55
2019-06-26T17:32:09.479Z,10.78
2019-06-26T17:35:10.921Z,11.18
2019-06-26T17:38:12.921Z,12.13
2019-06-26T17:41:14.492Z,12.53
2019-06-26T17:44:16.059Z,12.70
2019-06-26T17:47:18.489Z,12.82
2019-06-26T17:50:20.429Z,15.13
2019-06-26T17:53:22.568Z,14.07
2019-06-26T17:56:24.374Z,13.98
2019-06-26T17:59:25.787Z,14.15
2019-06-26T18:02:28.143Z,13.72
2019-06-26T18:05:29.924Z,13.00
2019-06-26T18:08:31.159Z,13.40
2019-06-26T18:11:32.417Z,13.50
2019-06-26T18:14:33.820Z,14.18
2019-06-26T18:17:35.186Z,13.85
2019-06-26T18:20:36.656Z,14.55
2019-06-26T18:23:38.752Z,14.65
2019-06-26T18:26:41.079Z,15.30
2019-06-26T18:29:42.400Z,15.05
2019-06-26T18:32:43.799Z,16.93
2019-06-26T18:35:45.050Z,16.30
2019-06-26T18:38:46.802Z,16.65
2019-06-26T18:42:04.274Z,16.17
2019-06-26T18:45:06.644Z,16.95
2019-06-26T18:48:07.989Z,16.40
2019-06-26T18:51:09.275Z,16.52
2019-06-26T18:54:11.207Z,16.42
2019-06-26T18:57:12.799Z,16.70
2019-06-26T19:00:14.875Z,17.67
2019-06-26T19:03:16.690Z,18.05
2019-06-26T19:06:17.927Z,18.05
2019-06-26T19:09:19.303Z,20.57
2019-06-26T19:12:20.548Z,19.15
2019-06-26T19:15:22.662Z,19.17
2019-06-26T19:18:24.631Z,19.20
2019-06-26T19:21:27.874Z,18.67
2019-06-26T19:24:29.924Z,18.92
2019-06-26T19:27:31.326Z,19.50
2019-06-26T19:30:32.661Z,20.43
2019-06-26T19:33:34.244Z,19.05
2019-06-26T19:36:49.075Z,19.48
2019-06-26T19:39:38.939Z,19.37
2019-06-26T19:42:42.605Z,20.32
2019-06-26T19:45:44.256Z,20.32
2019-06-26T19:48:45.777Z,19.77
2019-06-26T19:51:47.560Z,20.20
2019-06-26T19:54:50.127Z,20.52
2019-06-26T19:57:52.779Z,19.85
2019-06-26T20:00:54.318Z,21.17
2019-06-26T20:03:56.226Z,19.37
2019-06-26T20:06:57.480Z,20.00
2019-06-26T20:10:02.066Z,19.77
2019-06-26T20:13:03.677Z,19.02
2019-06-26T20:16:04.948Z,18.95
2019-06-26T20:19:06.435Z,19.20
2019-06-26T20:22:08.023Z,17.12
2019-06-26T20:25:10.043Z,16.97
2019-06-26T20:28:11.354Z,16.75
2019-06-26T20:31:12.621Z,16.73
2019-06-26T20:34:14.527Z,17.27
2019-06-26T20:37:16.297Z,17.23
2019-06-26T20:40:18.868Z,15.75
2019-06-26T20:43:21.559Z,16.70
2019-06-26T20:46:23.342Z,16.70
2019-06-26T20:49:25.129Z,16.45
2019-06-26T20:52:27.098Z,15.93
2019-06-26T20:55:28.863Z,16.17
2019-06-26T20:58:31.396Z,15.45
2019-06-26T21:01:33.226Z,15.93
2019-06-26T21:04:35.249Z,15.70
2019-06-26T21:07:36.809Z,16.17
2019-06-26T21:10:38.571Z,15.65
2019-06-26T21:13:40.491Z,15.75
2019-06-26T21:16:41.855Z,14.55
2019-06-26T21:19:43.554Z,15.98
2019-06-26T21:22:45.935Z,15.43
2019-06-26T21:25:47.632Z,15.45
2019-06-26T21:28:49.242Z,15.75
2019-06-26T21:31:50.769Z,15.50
2019-06-26T21:34:52.637Z,15.08
2019-06-26T21:37:54.912Z,15.48
2019-06-26T21:40:57.701Z,15.03
2019-06-26T21:44:00.445Z,14.53
2019-06-26T21:47:02.642Z,14.58
2019-06-26T21:50:06.324Z,14.55
2019-06-26T21:53:08.317Z,14.73
2019-06-26T21:56:09.781Z,14.20
2019-06-26T21:59:11.753Z,14.35
2019-06-26T22:02:13.537Z,14.45
2019-06-26T22:05:15.678Z,15.03
2019-06-26T22:08:17.691Z,14.65
2019-06-26T22:11:19.371Z,14.15
2019-06-26T22:14:21.179Z,14.90
2019-06-26T22:17:22.998Z,14.25
2019-06-26T22:20:24.726Z,13.62
2019-06-26T22:23:26.763Z,12.75
2019-06-26T22:26:29.760Z,13.32
2019-06-26T22:29:31.637Z,13.45
2019-06-26T22:32:33.352Z,13.28
2019-06-26T22:35:35.364Z,13.35
2019-06-26T22:38:38.786Z,12.80
2019-06-26T22:41:41.576Z,12.45
2019-06-26T22:44:43.404Z,12.93
2019-06-26T22:47:45.419Z,12.30
2019-06-26T22:50:47.326Z,12.98
2019-06-26T22:53:48.981Z,13.18
2019-06-26T22:56:50.449Z,12.70
2019-06-26T22:59:52.023Z,13.40
2019-06-26T23:02:53.655Z,12.95
2019-06-26T23:05:55.558Z,13.05
2019-06-26T23:08:57.081Z,14.07
2019-06-26T23:11:58.665Z,13.62
2019-06-26T23:15:00.199Z,12.65
2019-06-26T23:18:01.684Z,12.60
2019-06-26T23:21:03.272Z,12.37
2019-06-26T23:24:05.088Z,12.70
2019-06-26T23:27:06.747Z,12.45
2019-06-26T23:30:18.347Z,12.82
2019-06-26T23:33:19.720Z,13.20
2019-06-26T23:36:21.374Z,12.82
2019-06-26T23:39:22.943Z,13.58
2019-06-26T23:42:25.022Z,13.43
2019-06-26T23:45:26.614Z,13.08
2019-06-26T23:48:28.513Z,12.98
2019-06-26T23:51:29.974Z,13.20
2019-06-26T23:54:31.811Z,13.48
2019-06-26T23:57:33.306Z,13.10
